createdAt,value
2017-12-29T00:00:35.540Z,39.30
2017-12-29T00:02:43.227Z,40.40
2017-12-29T00:04:48.118Z,40.50
2017-12-29T00:06:52.422Z,41.20
2017-12-29T00:08:56.910Z,41.90
2017-12-29T00:11:00.407Z,41.80
2017-12-29T00:13:04.288Z,40.90
2017-12-29T00:15:07.781Z,40.30
2017-12-29T00:17:11.209Z,40.40
2017-12-29T00:19:14.697Z,40.20
2017-12-29T00:21:18.193Z,40.90
2017-12-29T00:23:21.661Z,41.90
2017-12-29T00:25:25.178Z,41.70
2017-12-29T00:27:28.618Z,39.20
2017-12-29T00:29:32.038Z,40.70
2017-12-29T00:31:35.517Z,41.10
2017-12-29T00:33:38.992Z,41.00
2017-12-29T00:35:43.219Z,40.00
2017-12-29T00:37:46.676Z,40.10
2017-12-29T00:39:50.888Z,41.30
2017-12-29T00:41:55.141Z,40.50
2017-12-29T00:43:58.597Z,40.70
2017-12-29T00:46:02.850Z,41.90
2017-12-29T00:48:06.286Z,41.90
2017-12-29T00:50:09.739Z,41.90
2017-12-29T00:52:13.271Z,42.20
2017-12-29T00:54:16.715Z,42.40
2017-12-29T00:56:20.209Z,42.00
2017-12-29T00:58:23.691Z,41.90
2017-12-29T01:00:28.111Z,42.00
2017-12-29T01:02:31.618Z,41.40
2017-12-29T01:04:35.077Z,40.50
2017-12-29T01:06:38.524Z,40.50
2017-12-29T01:08:42.234Z,41.30
2017-12-29T01:10:45.730Z,41.50
2017-12-29T01:12:49.218Z,40.60
2017-12-29T01:14:52.661Z,40.20
2017-12-29T01:16:56.867Z,41.80
2017-12-29T01:19:01.111Z,42.20
2017-12-29T01:21:04.574Z,41.90
2017-12-29T01:23:08.062Z,41.50
2017-12-29T01:25:11.516Z,41.20
2017-12-29T01:27:14.954Z,41.30
2017-12-29T01:29:19.226Z,38.70
2017-12-29T01:31:22.686Z,38.90
2017-12-29T01:33:26.122Z,38.70
2017-12-29T01:35:29.664Z,39.00
2017-12-29T01:37:33.859Z,38.60
2017-12-29T01:39:37.363Z,38.70
2017-12-29T01:41:41.575Z,39.10
2017-12-29T01:43:45.014Z,39.40
2017-12-29T01:45:48.528Z,38.90
2017-12-29T01:47:57.857Z,38.00
2017-12-29T01:50:01.297Z,37.20
2017-12-29T01:52:05.495Z,38.70
2017-12-29T01:54:08.919Z,38.70
2017-12-29T01:56:12.396Z,38.70
2017-12-29T01:58:15.805Z,39.40
2017-12-29T02:00:19.297Z,38.80
2017-12-29T02:02:22.775Z,38.60
2017-12-29T02:04:26.233Z,38.60
2017-12-29T02:06:29.702Z,39.50
2017-12-29T02:08:33.192Z,39.30
2017-12-29T02:10:36.657Z,38.70
2017-12-29T02:12:40.155Z,38.20
2017-12-29T02:14:43.618Z,38.00
2017-12-29T02:16:47.104Z,38.70
2017-12-29T02:18:50.566Z,38.50
2017-12-29T02:20:53.993Z,37.90
2017-12-29T02:22:57.493Z,38.10
2017-12-29T02:25:01.734Z,38.00
2017-12-29T02:27:06.034Z,38.80
2017-12-29T02:29:09.442Z,38.60
2017-12-29T02:31:12.913Z,39.10
2017-12-29T02:33:18.360Z,37.80
2017-12-29T02:35:22.592Z,38.60
2017-12-29T02:37:26.090Z,38.60
2017-12-29T02:39:29.570Z,38.60
2017-12-29T02:41:33.798Z,39.10
2017-12-29T02:43:37.244Z,38.80
2017-12-29T02:45:41.950Z,39.00
2017-12-29T02:47:45.415Z,39.50
2017-12-29T02:49:48.863Z,39.00
2017-12-29T02:51:53.073Z,39.80
2017-12-29T02:53:56.555Z,39.80
2017-12-29T02:56:00.024Z,40.60
2017-12-29T02:58:03.508Z,40.70
2017-12-29T03:00:07.053Z,41.10
2017-12-29T03:02:11.316Z,41.10
2017-12-29T03:04:14.886Z,41.00
2017-12-29T03:06:19.096Z,40.80
2017-12-29T03:08:23.351Z,40.40
2017-12-29T03:10:26.781Z,40.90
2017-12-29T03:12:30.214Z,40.40
2017-12-29T03:14:34.430Z,39.90
2017-12-29T03:16:37.840Z,39.90
2017-12-29T03:18:41.277Z,40.30
2017-12-29T03:20:44.726Z,41.70
2017-12-29T03:22:48.226Z,41.40
2017-12-29T03:24:51.710Z,41.70
2017-12-29T03:26:55.180Z,41.90
2017-12-29T03:28:59.475Z,42.10
2017-12-29T03:31:03.706Z,42.10
2017-12-29T03:33:07.129Z,42.30
2017-12-29T03:35:10.579Z,41.70
2017-12-29T03:37:14.030Z,41.70
2017-12-29T03:39:17.481Z,42.90
2017-12-29T03:41:21.706Z,43.40
2017-12-29T03:43:25.142Z,44.00
2017-12-29T03:45:28.696Z,43.30
2017-12-29T03:47:32.146Z,43.80
2017-12-29T03:49:36.380Z,44.20
2017-12-29T03:51:40.613Z,44.00
2017-12-29T03:53:45.255Z,44.10
2017-12-29T03:55:48.774Z,44.00
2017-12-29T03:57:52.226Z,44.10
2017-12-29T03:59:55.670Z,44.10
2017-12-29T04:01:59.202Z,44.30
2017-12-29T04:04:02.672Z,44.50
2017-12-29T04:06:06.908Z,43.90
2017-12-29T04:08:10.420Z,44.00
2017-12-29T04:10:13.862Z,44.00
2017-12-29T04:12:17.342Z,44.20
2017-12-29T04:14:20.799Z,44.50
2017-12-29T04:16:24.245Z,45.50
2017-12-29T04:18:27.731Z,45.20
2017-12-29T04:20:31.218Z,44.90
2017-12-29T04:22:35.483Z,45.10
2017-12-29T04:24:39.673Z,45.40
2017-12-29T04:26:43.108Z,45.20
2017-12-29T04:28:46.587Z,45.00
2017-12-29T04:30:50.049Z,45.00
2017-12-29T04:32:53.509Z,45.20
2017-12-29T04:34:56.988Z,45.00
2017-12-29T04:37:00.482Z,45.40
2017-12-29T04:39:04.019Z,45.10
2017-12-29T04:41:07.457Z,45.60
2017-12-29T04:43:11.031Z,46.30
2017-12-29T04:45:15.230Z,44.90
2017-12-29T04:47:18.681Z,45.10
2017-12-29T04:49:22.180Z,44.80
2017-12-29T04:51:25.645Z,44.60
2017-12-29T04:53:29.125Z,44.80
2017-12-29T04:55:33.361Z,45.00
2017-12-29T04:57:36.823Z,44.90
2017-12-29T04:59:40.313Z,44.90
2017-12-29T05:01:43.769Z,45.10
2017-12-29T05:03:47.230Z,45.30
2017-12-29T05:05:50.778Z,45.00
2017-12-29T05:07:54.272Z,45.40
2017-12-29T05:09:57.790Z,45.00
2017-12-29T05:12:01.243Z,44.70
2017-12-29T05:14:04.678Z,44.80
2017-12-29T05:16:08.949Z,45.60
2017-12-29T05:18:12.499Z,46.10
2017-12-29T05:20:17.311Z,46.00
2017-12-29T05:22:21.540Z,46.00
2017-12-29T05:24:25.231Z,46.10
2017-12-29T05:26:28.717Z,45.50
2017-12-29T05:28:32.178Z,45.40
2017-12-29T05:30:35.758Z,45.60
2017-12-29T05:32:39.207Z,44.90
2017-12-29T05:34:42.650Z,44.30
2017-12-29T05:36:46.104Z,44.00
2017-12-29T05:38:49.540Z,43.30
2017-12-29T05:40:52.980Z,43.60
2017-12-29T05:42:56.494Z,43.80
2017-12-29T05:45:00.022Z,43.60
2017-12-29T05:47:03.516Z,42.00
2017-12-29T05:49:06.950Z,40.40
2017-12-29T05:51:11.300Z,40.20
2017-12-29T05:53:14.804Z,39.80
2017-12-29T05:55:19.003Z,41.10
2017-12-29T05:57:22.437Z,41.20
2017-12-29T05:59:26.035Z,41.50
2017-12-29T06:01:29.473Z,41.60
2017-12-29T06:03:33.725Z,41.90
2017-12-29T06:05:38.017Z,41.80
2017-12-29T06:07:41.698Z,42.00
2017-12-29T06:09:45.203Z,42.30
2017-12-29T06:11:48.679Z,40.10
2017-12-29T06:13:52.171Z,39.50
2017-12-29T06:15:56.413Z,38.80
2017-12-29T06:17:59.891Z,38.90
2017-12-29T06:20:04.117Z,38.90
2017-12-29T06:22:07.638Z,38.80
2017-12-29T06:24:11.975Z,37.40
2017-12-29T06:26:15.928Z,37.40
2017-12-29T06:28:19.514Z,37.20
2017-12-29T06:30:22.993Z,38.70
2017-12-29T06:32:27.181Z,38.40
2017-12-29T06:34:30.653Z,38.30
2017-12-29T06:36:34.746Z,38.90
2017-12-29T06:38:38.204Z,37.30
2017-12-29T06:40:41.703Z,37.90
2017-12-29T06:42:45.140Z,37.90
2017-12-29T06:44:48.590Z,37.70
2017-12-29T06:46:52.828Z,38.70
2017-12-29T06:48:56.394Z,38.70
2017-12-29T06:50:59.874Z,38.40
2017-12-29T06:53:04.092Z,38.60
2017-12-29T06:55:08.354Z,38.90
2017-12-29T06:57:11.873Z,38.90
2017-12-29T06:59:15.313Z,38.20
2017-12-29T07:01:19.559Z,39.10
2017-12-29T07:03:23.019Z,38.70
2017-12-29T07:05:27.277Z,39.30
2017-12-29T07:07:31.578Z,39.70
2017-12-29T07:09:35.846Z,39.00
2017-12-29T07:11:39.352Z,39.10
2017-12-29T07:13:43.572Z,39.50
2017-12-29T07:15:47.019Z,39.50
2017-12-29T07:17:50.569Z,39.20
2017-12-29T07:19:54.068Z,39.30
2017-12-29T07:21:57.592Z,39.60
2017-12-29T07:24:01.034Z,39.80
2017-12-29T07:26:04.579Z,39.50
2017-12-29T07:28:08.083Z,38.80
2017-12-29T07:30:11.624Z,39.80
2017-12-29T07:32:15.893Z,38.80
2017-12-29T07:34:19.593Z,38.80
2017-12-29T07:36:23.016Z,39.10
2017-12-29T07:38:26.543Z,39.90
2017-12-29T07:40:30.046Z,40.10
2017-12-29T07:42:33.481Z,38.90
2017-12-29T07:44:36.996Z,40.40
2017-12-29T07:46:40.466Z,40.10
2017-12-29T07:48:43.959Z,39.80
2017-12-29T07:50:47.431Z,38.90
2017-12-29T07:52:50.873Z,38.60
2017-12-29T07:54:55.142Z,38.10
2017-12-29T07:56:58.572Z,38.00
2017-12-29T07:59:03.053Z,38.20
2017-12-29T08:01:06.474Z,39.60
2017-12-29T08:03:09.958Z,39.40
2017-12-29T08:05:13.460Z,40.70
2017-12-29T08:07:17.060Z,40.20
2017-12-29T08:09:22.767Z,40.80
2017-12-29T08:11:26.186Z,40.40
2017-12-29T08:13:29.656Z,40.70
2017-12-29T08:15:33.134Z,41.00
2017-12-29T08:17:36.594Z,40.50
2017-12-29T08:19:40.850Z,41.60
2017-12-29T08:21:44.627Z,41.20
2017-12-29T08:23:48.920Z,40.80
2017-12-29T08:25:53.287Z,41.00
2017-12-29T08:27:56.841Z,40.60
2017-12-29T08:30:02.676Z,40.40
2017-12-29T08:32:06.127Z,40.10
2017-12-29T08:34:10.899Z,40.60
2017-12-29T08:36:15.155Z,40.60
2017-12-29T08:38:18.571Z,40.50
2017-12-29T08:40:22.067Z,40.50
2017-12-29T08:42:25.502Z,40.50
2017-12-29T08:44:29.706Z,40.60
2017-12-29T08:46:33.215Z,40.50
2017-12-29T08:48:37.503Z,39.90
2017-12-29T08:50:41.107Z,39.80
2017-12-29T08:52:45.411Z,41.10
2017-12-29T08:54:49.655Z,42.20
2017-12-29T08:56:54.627Z,42.20
2017-12-29T08:58:58.494Z,42.20
2017-12-29T09:01:02.152Z,41.50
2017-12-29T09:03:08.441Z,41.10
2017-12-29T09:05:12.549Z,41.00
2017-12-29T09:07:17.272Z,41.50
2017-12-29T09:09:24.651Z,42.40
2017-12-29T09:11:29.478Z,42.70
2017-12-29T09:13:33.398Z,42.60
2017-12-29T09:15:38.972Z,40.30
2017-12-29T09:17:44.733Z,40.30
2017-12-29T09:19:49.114Z,38.80
2017-12-29T09:21:52.874Z,38.70
2017-12-29T09:23:56.555Z,40.10
2017-12-29T09:26:01.884Z,39.80
2017-12-29T09:28:06.916Z,39.80
2017-12-29T09:30:11.832Z,39.90
2017-12-29T09:32:15.531Z,39.70
2017-12-29T09:34:21.064Z,40.50
2017-12-29T09:36:24.753Z,39.50
2017-12-29T09:38:28.669Z,39.90
2017-12-29T09:40:32.617Z,40.30
2017-12-29T09:42:37.128Z,38.90
2017-12-29T09:44:41.795Z,39.20
2017-12-29T09:46:45.387Z,38.90
2017-12-29T09:48:50.392Z,38.90
2017-12-29T09:50:55.362Z,38.90
2017-12-29T09:53:00.881Z,38.70
2017-12-29T09:55:05.166Z,38.70
2017-12-29T09:57:08.725Z,39.50
2017-12-29T09:59:12.326Z,39.90
2017-12-29T10:01:17.709Z,40.10
2017-12-29T10:03:22.405Z,40.60
2017-12-29T10:05:25.948Z,39.60
2017-12-29T10:07:29.387Z,39.50
2017-12-29T10:09:32.849Z,39.50
2017-12-29T10:11:36.390Z,40.60
2017-12-29T10:13:39.831Z,40.20
2017-12-29T10:15:43.382Z,41.10
2017-12-29T10:17:46.896Z,40.50
2017-12-29T10:19:50.354Z,40.50
2017-12-29T10:21:53.956Z,39.90
2017-12-29T10:23:57.466Z,39.50
2017-12-29T10:26:01.865Z,39.20
2017-12-29T10:28:05.321Z,39.10
2017-12-29T10:30:09.644Z,38.70
2017-12-29T10:32:13.757Z,38.20
2017-12-29T10:34:17.237Z,38.70
2017-12-29T10:36:21.498Z,38.40
2017-12-29T10:38:26.892Z,38.40
2017-12-29T10:40:30.842Z,38.30
2017-12-29T10:42:34.465Z,38.60
2017-12-29T10:44:37.933Z,37.70
2017-12-29T10:46:41.491Z,38.00
2017-12-29T10:48:45.803Z,38.50
2017-12-29T10:50:49.276Z,37.90
2017-12-29T10:52:53.605Z,36.90
2017-12-29T10:54:57.933Z,37.80
2017-12-29T10:57:01.438Z,37.70
2017-12-29T10:59:05.026Z,37.10
2017-12-29T11:01:08.520Z,37.70
2017-12-29T11:03:12.122Z,37.60
2017-12-29T11:05:15.594Z,37.10
2017-12-29T11:07:19.354Z,37.30
2017-12-29T11:09:23.623Z,36.40
2017-12-29T11:11:27.136Z,36.40
2017-12-29T11:13:30.666Z,32.70
2017-12-29T11:15:34.978Z,28.40
2017-12-29T11:17:38.470Z,27.90
2017-12-29T11:19:41.986Z,27.70
2017-12-29T11:21:45.425Z,29.30
2017-12-29T11:23:48.986Z,27.80
2017-12-29T11:25:52.432Z,29.30
2017-12-29T11:27:55.897Z,30.30
2017-12-29T11:29:59.441Z,29.40
2017-12-29T11:32:03.585Z,29.30
2017-12-29T11:34:07.095Z,30.60
2017-12-29T11:36:11.121Z,30.80
2017-12-29T11:38:14.650Z,30.00
2017-12-29T11:40:18.151Z,30.60
2017-12-29T11:42:21.638Z,30.60
2017-12-29T11:44:25.176Z,30.90
2017-12-29T11:46:29.465Z,30.80
2017-12-29T11:48:33.400Z,30.60
2017-12-29T11:50:37.695Z,31.30
2017-12-29T11:52:41.153Z,31.30
2017-12-29T11:54:44.727Z,29.50
2017-12-29T11:56:48.232Z,29.00
2017-12-29T11:58:51.684Z,28.00
2017-12-29T12:00:55.230Z,28.60
2017-12-29T12:02:59.230Z,28.10
2017-12-29T12:05:02.738Z,27.70
2017-12-29T12:07:06.167Z,28.30
2017-12-29T12:09:10.410Z,28.90
2017-12-29T12:11:13.911Z,28.90
2017-12-29T12:13:17.405Z,29.60
2017-12-29T12:15:20.922Z,29.80
2017-12-29T12:17:24.655Z,29.10
2017-12-29T12:19:28.119Z,29.20
2017-12-29T12:21:32.124Z,29.10
2017-12-29T12:23:36.350Z,29.40
2017-12-29T12:25:39.833Z,29.10
2017-12-29T12:27:43.885Z,28.90
2017-12-29T12:29:48.097Z,29.80
2017-12-29T12:31:52.369Z,30.30
2017-12-29T12:33:55.837Z,30.40
2017-12-29T12:35:59.342Z,29.90
2017-12-29T12:38:04.292Z,30.60
2017-12-29T12:40:08.651Z,29.70
2017-12-29T12:42:12.141Z,30.20
2017-12-29T12:44:15.657Z,30.60
2017-12-29T12:46:19.890Z,29.60
2017-12-29T12:48:24.373Z,29.90
2017-12-29T12:50:28.593Z,29.70
2017-12-29T12:52:37.405Z,30.10
2017-12-29T12:54:42.172Z,28.50
2017-12-29T12:56:45.928Z,28.60
2017-12-29T12:58:50.046Z,30.20
2017-12-29T13:00:55.637Z,29.40
2017-12-29T13:03:00.214Z,30.00
2017-12-29T13:05:04.604Z,29.90
2017-12-29T13:07:08.438Z,29.90
2017-12-29T13:09:12.836Z,29.60
2017-12-29T13:11:17.358Z,30.00
2017-12-29T13:13:21.651Z,29.50
2017-12-29T13:15:26.112Z,30.00
2017-12-29T13:17:29.609Z,29.50
2017-12-29T13:19:33.195Z,29.40
2017-12-29T13:21:36.881Z,30.10
2017-12-29T13:23:40.430Z,30.70
2017-12-29T13:25:44.504Z,32.00
2017-12-29T13:27:48.034Z,30.80
2017-12-29T13:29:51.685Z,30.50
2017-12-29T13:31:55.924Z,29.50
2017-12-29T13:33:59.461Z,29.60
2017-12-29T13:36:04.124Z,29.80
2017-12-29T13:38:14.759Z,29.80
2017-12-29T13:40:18.314Z,28.40
2017-12-29T13:42:21.747Z,30.00
2017-12-29T13:44:26.050Z,29.20
2017-12-29T13:46:29.533Z,28.70
2017-12-29T13:48:34.445Z,30.40
2017-12-29T13:50:39.987Z,30.10
2017-12-29T13:52:43.968Z,30.00
2017-12-29T13:54:47.757Z,30.80
2017-12-29T13:56:51.425Z,31.30
2017-12-29T13:58:54.880Z,31.80
2017-12-29T14:00:58.376Z,32.30
2017-12-29T14:03:01.851Z,32.50
2017-12-29T14:05:05.330Z,33.70
2017-12-29T14:07:08.819Z,33.50
2017-12-29T14:09:12.234Z,32.90
2017-12-29T14:11:16.514Z,33.40
2017-12-29T14:13:20.112Z,33.20
2017-12-29T14:15:24.718Z,32.20
2017-12-29T14:17:28.920Z,33.10
2017-12-29T14:19:32.398Z,33.00
2017-12-29T14:21:35.886Z,33.60
2017-12-29T14:23:39.344Z,33.60
2017-12-29T14:25:43.513Z,33.30
2017-12-29T14:27:47.117Z,33.30
2017-12-29T14:29:50.554Z,33.00
2017-12-29T14:31:54.087Z,33.10
2017-12-29T14:33:57.529Z,31.90
2017-12-29T14:36:02.774Z,33.30
2017-12-29T14:38:06.246Z,33.20
2017-12-29T14:40:09.642Z,32.90
2017-12-29T14:42:13.158Z,33.20
2017-12-29T14:44:16.576Z,32.80
2017-12-29T14:46:20.022Z,32.00
2017-12-29T14:48:23.475Z,32.60
2017-12-29T14:50:26.928Z,32.80
2017-12-29T14:52:30.329Z,32.40
2017-12-29T14:54:33.774Z,32.60
2017-12-29T14:56:37.191Z,32.60
2017-12-29T14:58:41.477Z,33.50
2017-12-29T15:00:45.006Z,33.40
2017-12-29T15:02:49.791Z,36.60
2017-12-29T15:04:53.274Z,36.50
2017-12-29T15:06:57.436Z,37.60
2017-12-29T15:09:01.704Z,40.10
2017-12-29T15:11:05.948Z,41.40
2017-12-29T15:13:10.219Z,42.50
2017-12-29T15:15:13.693Z,42.50
2017-12-29T15:17:17.148Z,44.10
2017-12-29T15:19:20.724Z,45.40
2017-12-29T15:21:24.997Z,47.70
2017-12-29T15:23:29.348Z,47.50
2017-12-29T15:25:32.934Z,48.80
2017-12-29T15:27:37.199Z,50.90
2017-12-29T15:29:41.433Z,52.60
2017-12-29T15:31:44.999Z,52.20
2017-12-29T15:33:49.189Z,54.30
2017-12-29T15:35:52.743Z,54.50
2017-12-29T15:37:56.190Z,54.00
2017-12-29T15:40:01.070Z,55.60
2017-12-29T15:42:04.769Z,56.40
2017-12-29T15:44:08.290Z,57.50
2017-12-29T15:46:12.626Z,58.50
2017-12-29T15:48:17.104Z,58.60
2017-12-29T15:50:20.572Z,58.10
2017-12-29T15:52:24.249Z,58.30
2017-12-29T15:54:27.911Z,57.30
2017-12-29T15:56:31.395Z,57.50
2017-12-29T15:58:35.105Z,57.10
2017-12-29T16:00:41.817Z,57.60
2017-12-29T16:02:45.390Z,57.10
2017-12-29T16:04:48.957Z,58.70
2017-12-29T16:06:52.790Z,59.70
2017-12-29T16:08:56.998Z,61.00
2017-12-29T16:11:00.492Z,61.00
2017-12-29T16:13:04.863Z,61.00
2017-12-29T16:15:08.419Z,60.90
2017-12-29T16:17:13.414Z,60.90
2017-12-29T16:19:17.048Z,60.40
2017-12-29T16:21:21.290Z,59.90
2017-12-29T16:23:24.834Z,59.60
2017-12-29T16:25:28.312Z,59.70
2017-12-29T16:27:31.767Z,59.30
2017-12-29T16:29:37.310Z,58.60
2017-12-29T16:31:43.037Z,58.60
2017-12-29T16:33:46.760Z,59.50
2017-12-29T16:35:51.468Z,58.10
2017-12-29T16:37:56.168Z,57.90
2017-12-29T16:40:00.472Z,57.30
2017-12-29T16:42:03.977Z,57.50
2017-12-29T16:44:07.835Z,56.70
2017-12-29T16:46:12.095Z,58.00
2017-12-29T16:48:16.347Z,57.60
2017-12-29T16:50:20.616Z,57.60
2017-12-29T16:52:24.860Z,58.40
2017-12-29T16:54:28.455Z,58.30
2017-12-29T16:56:32.640Z,58.60
2017-12-29T16:58:38.221Z,59.00
2017-12-29T17:00:42.650Z,59.00
2017-12-29T17:02:46.148Z,58.60
2017-12-29T17:04:49.610Z,58.00
2017-12-29T17:06:54.148Z,58.30
2017-12-29T17:08:57.643Z,58.30
2017-12-29T17:11:01.966Z,58.20
2017-12-29T17:13:07.283Z,58.10
2017-12-29T17:15:11.564Z,59.20
2017-12-29T17:17:15.484Z,59.10
2017-12-29T17:19:20.446Z,59.80
2017-12-29T17:21:26.723Z,60.00
2017-12-29T17:23:31.092Z,60.00
2017-12-29T17:25:34.619Z,59.90
2017-12-29T17:27:38.077Z,57.30
2017-12-29T17:29:41.586Z,57.20
2017-12-29T17:31:45.855Z,57.40
2017-12-29T17:33:49.317Z,57.40
2017-12-29T17:35:55.222Z,57.70
2017-12-29T17:38:07.822Z,58.10
2017-12-29T17:40:12.540Z,57.70
2017-12-29T17:42:16.564Z,59.00
2017-12-29T17:44:25.493Z,61.90
2017-12-29T17:46:29.749Z,61.80
2017-12-29T17:48:33.782Z,61.50
2017-12-29T17:50:38.009Z,61.20
2017-12-29T17:52:43.625Z,60.80
2017-12-29T17:54:49.227Z,60.50
2017-12-29T17:56:53.790Z,66.20
2017-12-29T17:58:58.121Z,61.60
2017-12-29T18:01:06.062Z,61.50
2017-12-29T18:03:13.969Z,61.20
2017-12-29T18:05:19.240Z,61.10
2017-12-29T18:07:22.835Z,61.20
2017-12-29T18:09:26.246Z,60.50
2017-12-29T18:11:30.477Z,59.80
2017-12-29T18:13:34.722Z,60.50
2017-12-29T18:15:38.159Z,60.30
2017-12-29T18:17:41.632Z,60.50
2017-12-29T18:19:45.073Z,60.00
2017-12-29T18:21:48.500Z,60.30
2017-12-29T18:23:51.954Z,59.40
2017-12-29T18:25:55.369Z,60.30
2017-12-29T18:27:58.854Z,59.90
2017-12-29T18:30:02.361Z,59.70
2017-12-29T18:32:05.820Z,58.80
2017-12-29T18:34:09.343Z,58.40
2017-12-29T18:36:13.569Z,59.30
2017-12-29T18:38:17.066Z,59.10
2017-12-29T18:40:20.641Z,59.60
2017-12-29T18:42:24.144Z,58.90
2017-12-29T18:44:27.656Z,59.30
2017-12-29T18:46:31.832Z,59.60
2017-12-29T18:48:35.293Z,59.40
2017-12-29T18:50:39.525Z,57.70
2017-12-29T18:52:42.960Z,57.80
2017-12-29T18:54:46.473Z,58.40
2017-12-29T18:56:49.950Z,58.50
2017-12-29T18:58:54.137Z,58.90
2017-12-29T19:00:58.365Z,59.40
2017-12-29T19:03:02.535Z,58.70
2017-12-29T19:05:06.006Z,58.80
2017-12-29T19:07:09.454Z,58.80
2017-12-29T19:09:13.651Z,59.10
2017-12-29T19:11:17.134Z,59.00
2017-12-29T19:13:20.589Z,57.70
2017-12-29T19:15:24.017Z,58.90
2017-12-29T19:17:27.480Z,58.90
2017-12-29T19:19:30.905Z,60.30
2017-12-29T19:21:34.337Z,60.00
2017-12-29T19:23:38.583Z,59.80
2017-12-29T19:25:42.008Z,59.50
2017-12-29T19:27:45.448Z,59.40
2017-12-29T19:29:49.681Z,59.50
2017-12-29T19:31:53.106Z,59.70
2017-12-29T19:33:56.556Z,59.40
2017-12-29T19:36:00.257Z,60.00
2017-12-29T19:38:03.696Z,59.80
2017-12-29T19:40:07.115Z,59.50
2017-12-29T19:42:11.302Z,59.30
2017-12-29T19:44:14.760Z,59.50
2017-12-29T19:46:18.190Z,59.70
2017-12-29T19:48:21.665Z,58.90
2017-12-29T19:50:25.086Z,59.50
2017-12-29T19:52:28.498Z,59.00
2017-12-29T19:54:32.761Z,59.00
2017-12-29T19:56:36.186Z,59.20
2017-12-29T19:58:39.608Z,59.80
2017-12-29T20:00:43.074Z,59.00
2017-12-29T20:02:46.518Z,58.60
2017-12-29T20:04:49.967Z,58.80
2017-12-29T20:06:54.171Z,58.90
2017-12-29T20:08:57.583Z,58.80
2017-12-29T20:11:01.778Z,60.40
2017-12-29T20:13:05.990Z,61.00
2017-12-29T20:15:09.902Z,61.10
2017-12-29T20:17:13.370Z,60.80
2017-12-29T20:19:16.786Z,60.80
2017-12-29T20:21:20.221Z,60.60
2017-12-29T20:23:23.610Z,61.20
2017-12-29T20:25:27.038Z,61.00
2017-12-29T20:27:31.294Z,59.80
2017-12-29T20:29:34.718Z,59.70
2017-12-29T20:31:38.146Z,60.10
2017-12-29T20:33:41.550Z,60.80
2017-12-29T20:35:44.942Z,62.40
2017-12-29T20:37:48.402Z,62.80
2017-12-29T20:39:51.799Z,63.00
2017-12-29T20:41:55.239Z,63.40
2017-12-29T20:43:58.657Z,63.50
2017-12-29T20:46:02.075Z,62.80
2017-12-29T20:48:05.540Z,63.70
2017-12-29T20:50:08.952Z,63.70
2017-12-29T20:52:13.169Z,63.40
2017-12-29T20:54:16.590Z,63.70
2017-12-29T20:56:20.023Z,64.10
2017-12-29T20:58:24.218Z,64.90
2017-12-29T21:00:27.642Z,64.80
2017-12-29T21:02:31.832Z,64.10
2017-12-29T21:04:35.270Z,64.00
2017-12-29T21:06:39.446Z,64.80
2017-12-29T21:08:42.938Z,64.80
2017-12-29T21:10:46.353Z,64.60
2017-12-29T21:12:50.547Z,64.60
2017-12-29T21:14:54.044Z,64.70
2017-12-29T21:16:57.454Z,64.90
2017-12-29T21:19:00.929Z,65.10
2017-12-29T21:21:05.113Z,64.30
2017-12-29T21:23:09.302Z,64.20
2017-12-29T21:25:12.750Z,64.10
2017-12-29T21:27:16.152Z,64.40
2017-12-29T21:29:19.591Z,64.70
2017-12-29T21:31:22.998Z,64.50
2017-12-29T21:33:26.399Z,65.10
2017-12-29T21:35:30.600Z,64.60
2017-12-29T21:37:34.030Z,64.60
2017-12-29T21:39:37.530Z,64.60
2017-12-29T21:41:40.929Z,64.60
2017-12-29T21:43:44.323Z,65.70
2017-12-29T21:45:47.778Z,65.80
2017-12-29T21:47:51.956Z,66.30
2017-12-29T21:49:55.366Z,66.30
2017-12-29T21:51:58.809Z,65.80
2017-12-29T21:54:02.251Z,66.10
2017-12-29T21:56:05.693Z,66.70
2017-12-29T21:58:09.127Z,65.80
2017-12-29T22:00:12.518Z,66.40
2017-12-29T22:02:15.983Z,66.10
2017-12-29T22:04:19.387Z,66.00
2017-12-29T22:06:22.841Z,66.10
2017-12-29T22:08:26.259Z,66.00
2017-12-29T22:10:29.666Z,66.00
2017-12-29T22:12:33.116Z,64.60
2017-12-29T22:14:38.914Z,64.60
2017-12-29T22:16:42.386Z,64.60
2017-12-29T22:18:45.818Z,64.40
2017-12-29T22:20:49.231Z,64.50
2017-12-29T22:22:52.850Z,64.10
2017-12-29T22:24:56.289Z,63.20
2017-12-29T22:26:59.811Z,63.50
2017-12-29T22:29:03.243Z,63.50
2017-12-29T22:31:07.457Z,63.30
2017-12-29T22:33:11.554Z,63.00
2017-12-29T22:35:15.767Z,63.20
2017-12-29T22:37:19.295Z,63.30
2017-12-29T22:39:23.643Z,62.90
2017-12-29T22:41:28.508Z,63.00
2017-12-29T22:43:31.950Z,62.50
2017-12-29T22:45:37.243Z,63.60
2017-12-29T22:47:41.101Z,63.90
2017-12-29T22:49:45.165Z,63.50
2017-12-29T22:51:49.131Z,63.70
2017-12-29T22:53:53.370Z,63.00
2017-12-29T22:55:57.018Z,63.00
2017-12-29T22:58:00.914Z,61.60
2017-12-29T23:00:04.737Z,62.40
2017-12-29T23:02:08.439Z,61.70
2017-12-29T23:04:13.464Z,61.40
2017-12-29T23:06:17.652Z,61.50
2017-12-29T23:08:22.356Z,61.30
2017-12-29T23:10:27.876Z,62.10
2017-12-29T23:12:31.337Z,62.00
2017-12-29T23:14:35.617Z,62.00
2017-12-29T23:16:39.422Z,61.60
2017-12-29T23:18:43.041Z,62.80
2017-12-29T23:20:47.900Z,61.90
2017-12-29T23:22:51.756Z,62.20
2017-12-29T23:24:55.367Z,61.60
2017-12-29T23:26:59.581Z,62.40
2017-12-29T23:29:02.988Z,62.40
2017-12-29T23:31:07.490Z,63.30
2017-12-29T23:33:10.930Z,62.30
2017-12-29T23:35:14.408Z,62.30
2017-12-29T23:37:17.966Z,62.10
2017-12-29T23:39:22.469Z,62.10
2017-12-29T23:41:25.934Z,61.60
2017-12-29T23:43:29.407Z,61.00
2017-12-29T23:45:32.933Z,61.50
2017-12-29T23:47:36.401Z,60.90
2017-12-29T23:49:39.831Z,61.70
2017-12-29T23:51:44.063Z,61.50
2017-12-29T23:53:48.105Z,63.30
2017-12-29T23:55:51.613Z,62.80
2017-12-29T23:57:55.804Z,62.90
